Time;durP1;ratioP1;P1;durP2;ratioP2;P2;SDS_P1;SDS_P2;PMS_P1;PMS_P2;Temp;Humidity;BMP_temperature;BMP_pressure;BME280_temperature;BME280_humidity;BME280_pressure;Samples;Min_cycle;Max_cycle;Signal;HPM_P1;HPM_P2
2022/03/02 00:00:47;;;;;;;8.65;6.97;;;;;;;11.42;55.87;101791.81;143716;567;47008;-69
2022/03/02 00:03:14;;;;;;;9.50;7.80;;;;;;;11.41;56.43;101787.44;143717;620;47006;-69
2022/03/02 00:05:40;;;;;;;11.05;8.52;;;;;;;11.39;56.43;101803.72;143717;632;47004;-69
2022/03/02 00:08:07;;;;;;;18.73;13.32;;;;;;;11.37;56.51;101797.72;143715;611;47011;-68
2022/03/02 00:10:33;;;;;;;16.90;13.40;;;;;;;11.33;56.87;101789.16;143714;584;47004;-69
2022/03/02 00:13:00;;;;;;;11.07;9.80;;;;;;;11.33;56.91;101789.16;143715;636;47006;-69
2022/03/02 00:15:26;;;;;;;13.18;9.63;;;;;;;11.33;57.08;101786.47;143715;573;47005;-69
2022/03/02 00:17:53;;;;;;;13.82;9.70;;;;;;;11.33;56.76;101788.31;143716;660;47010;-68
2022/03/02 00:20:19;;;;;;;16.02;11.73;;;;;;;11.34;56.75;101781.94;143714;636;47004;-68
2022/03/02 00:22:46;;;;;;;11.02;9.68;;;;;;;11.31;56.76;101780.41;143714;611;47006;-68
2022/03/02 00:25:13;;;;;;;12.37;10.07;;;;;;;11.32;57.16;101778.56;143713;665;48000;-69
2022/03/02 00:27:39;;;;;;;11.88;9.50;;;;;;;11.30;56.99;101776.03;143715;579;47008;-69
2022/03/02 00:30:10;;;;;;;12.30;9.02;;;;;;;11.30;56.55;101761.78;143714;614;47004;-68
2022/03/02 00:32:37;;;;;;;14.57;10.70;;;;;;;11.31;56.50;101747.31;143715;608;47006;-69
2022/03/02 00:35:05;;;;;;;16.10;11.48;;;;;;;11.33;56.86;101756.03;143714;598;47002;-69
2022/03/02 00:37:31;;;;;;;13.75;11.82;;;;;;;11.34;56.91;101755.03;143715;612;47008;-69
2022/03/02 00:39:58;;;;;;;15.70;10.88;;;;;;;11.27;56.71;101762.97;143714;581;47002;-68
2022/03/02 00:42:24;;;;;;;13.25;10.43;;;;;;;11.31;56.84;101750.00;143715;581;47006;-68
2022/03/02 00:44:51;;;;;;;13.52;10.63;;;;;;;11.32;55.84;101731.00;143715;654;47002;-68
2022/03/02 00:47:18;;;;;;;7.97;6.97;;;;;;;11.30;55.00;101729.50;143715;606;47008;-68
2022/03/02 00:49:45;;;;;;;8.98;5.90;;;;;;;11.30;54.08;101738.41;143715;583;47004;-69
2022/03/02 00:52:14;;;;;;;6.65;5.28;;;;;;;11.29;53.63;101727.81;143717;567;46006;-69
2022/03/02 00:54:40;;;;;;;7.18;5.03;;;;;;;11.30;53.85;101733.00;143714;601;47002;-69
2022/03/02 00:57:07;;;;;;;6.85;5.35;;;;;;;11.32;53.89;101741.75;143716;574;47008;-69
2022/03/02 00:59:33;;;;;;;5.30;4.80;;;;;;;11.33;54.39;101734.53;143714;567;47005;-69
2022/03/02 01:02:00;;;;;;;6.72;5.53;;;;;;;11.28;54.19;101731.53;143717;579;46006;-69
2022/03/02 01:04:26;;;;;;;8.90;5.90;;;;;;;11.22;55.01;101727.72;143716;640;47004;-69
2022/03/02 01:06:53;;;;;;;8.13;5.37;;;;;;;11.14;54.68;101733.97;143713;602;47010;-69
2022/03/02 01:09:19;;;;;;;7.32;4.90;;;;;;;11.03;55.20;101721.75;143714;642;48927;-68
2022/03/02 01:11:45;;;;;;;6.25;4.65;;;;;;;11.06;54.93;101734.00;143716;572;47006;-69
2022/03/02 01:14:12;;;;;;;8.13;5.07;;;;;;;11.12;55.57;101746.75;143716;599;47002;-69
2022/03/02 01:16:38;;;;;;;7.47;5.18;;;;;;;11.14;54.99;101733.12;143713;589;47010;-69
2022/03/02 01:19:05;;;;;;;6.50;4.72;;;;;;;11.14;54.78;101735.81;143713;618;47004;-68
2022/03/02 01:21:32;;;;;;;6.70;4.82;;;;;;;11.16;54.45;101729.25;143716;641;47006;-70
2022/03/02 01:23:59;;;;;;;9.20;4.75;;;;;;;11.21;55.30;101724.16;143718;582;47000;-68
2022/03/02 01:26:27;;;;;;;8.10;6.18;;;;;;;11.26;54.92;101728.19;143715;585;47008;-69
2022/03/02 01:28:54;;;;;;;9.13;5.03;;;;;;;11.28;54.74;101735.06;143714;611;47004;-70
2022/03/02 01:31:25;;;;;;;7.60;5.00;;;;;;;11.26;54.85;101723.66;143716;583;47006;-68
2022/03/02 01:33:53;;;;;;;7.18;4.97;;;;;;;11.28;55.10;101724.31;143716;572;47002;-69
2022/03/02 01:36:20;;;;;;;7.43;5.43;;;;;;;11.28;55.72;101729.69;143717;652;47009;-70
2022/03/02 01:38:47;;;;;;;9.32;6.05;;;;;;;11.27;56.11;101736.09;143715;589;47010;-69
2022/03/02 01:41:24;;;;;;;6.57;5.87;;;;;;;11.26;55.96;101730.88;143716;585;47006;-69
2022/03/02 01:43:52;;;;;;;7.07;5.57;;;;;;;11.27;55.18;101724.47;143717;589;47006;-69
2022/03/02 01:46:19;;;;;;;7.18;5.22;;;;;;;11.27;54.95;101725.34;143714;679;47010;-69
2022/03/02 01:48:46;;;;;;;8.07;5.12;;;;;;;11.28;54.82;101715.41;143712;644;47004;-68
2022/03/02 01:51:13;;;;;;;7.90;4.72;;;;;;;11.26;54.52;101720.97;143717;585;47006;-68
2022/03/02 01:53:40;;;;;;;7.50;5.60;;;;;;;11.26;54.01;101720.97;143714;608;47002;-69
2022/03/02 01:56:07;;;;;;;7.28;4.53;;;;;;;11.26;53.91;101709.34;143715;617;47010;-69
2022/03/02 01:58:34;;;;;;;7.40;5.28;;;;;;;11.24;54.20;101706.84;143714;579;47011;-69
2022/03/02 02:01:01;;;;;;;5.10;4.10;;;;;;;11.19;53.78;101709.22;143716;610;46006;-68
2022/03/02 02:03:28;;;;;;;5.97;4.37;;;;;;;11.11;53.64;101706.62;143715;666;47002;-68
2022/03/02 02:05:54;;;;;;;5.28;3.97;;;;;;;11.14;54.35;101703.53;143714;605;47010;-68
2022/03/02 02:08:21;;;;;;;5.82;3.83;;;;;;;11.00;54.72;101694.41;143714;625;47004;-69
2022/03/02 02:10:48;;;;;;;5.75;4.20;;;;;;;10.97;53.86;101692.06;143713;577;46006;-68
2022/03/02 02:13:15;;;;;;;4.82;3.97;;;;;;;10.98;53.86;101699.94;143718;614;47006;-69
2022/03/02 02:15:42;;;;;;;5.85;4.22;;;;;;;11.02;54.38;101692.38;143713;625;47008;-69
2022/03/02 02:18:08;;;;;;;7.00;5.30;;;;;;;11.11;54.67;101687.78;143716;614;47008;-68
2022/03/02 02:20:37;;;;;;;6.35;5.53;;;;;;;11.14;55.45;101692.78;143716;591;47007;-69
2022/03/02 02:23:04;;;;;;;7.45;5.65;;;;;;;11.14;56.28;101695.47;143717;572;47002;-68
2022/03/02 02:25:30;;;;;;;6.50;5.05;;;;;;;11.10;56.03;101686.12;143715;575;47008;-68
2022/03/02 02:27:57;;;;;;;5.75;4.55;;;;;;;11.09;55.79;101690.66;143713;584;47004;-68
2022/03/02 02:30:24;;;;;;;6.75;4.70;;;;;;;11.12;55.40;101678.72;143717;611;47006;-68
2022/03/02 02:32:51;;;;;;;5.00;4.50;;;;;;;11.09;54.85;101662.94;143715;583;47002;-69
2022/03/02 02:35:17;;;;;;;4.80;4.00;;;;;;;11.10;54.45;101670.81;143716;604;47010;-68
2022/03/02 02:37:44;;;;;;;4.10;3.70;;;;;;;11.07;54.54;101680.09;143715;573;47010;-68
2022/03/02 02:40:16;;;;;;;4.72;3.83;;;;;;;11.10;54.76;101678.88;143715;572;47006;-68
2022/03/02 02:42:45;;;;;;;5.93;4.60;;;;;;;11.11;54.05;101679.72;143715;605;47007;-69
2022/03/02 02:45:17;;;;;;;4.68;4.07;;;;;;;11.15;54.59;101679.19;143716;580;47008;-69
2022/03/02 02:47:44;;;;;;;2.95;2.65;;;;;;;11.18;52.48;101684.22;143716;603;47004;-69
2022/03/02 02:50:26;;;;;;;3.37;3.08;;;;;;;11.17;51.80;101674.47;143717;573;47006;-68
2022/03/02 02:52:53;;;;;;;2.75;2.15;;;;;;;11.03;51.36;101676.06;143714;580;47002;-69
2022/03/02 02:55:21;;;;;;;2.90;2.58;;;;;;;10.97;51.97;101671.38;143716;626;47010;-68
2022/03/02 02:57:49;;;;;;;3.95;2.50;;;;;;;11.03;52.70;101676.06;143714;595;47004;-69
2022/03/02 03:00:18;;;;;;;6.03;4.20;;;;;;;11.07;53.15;101684.59;143714;601;47006;-68
2022/03/02 03:02:47;;;;;;;4.93;3.95;;;;;;;11.12;52.77;101681.41;143716;577;47002;-68
2022/03/02 03:05:15;;;;;;;4.28;3.87;;;;;;;11.14;53.18;101679.34;143713;589;47008;-68
2022/03/02 03:07:43;;;;;;;3.83;3.20;;;;;;;11.14;52.18;101665.91;143714;567;47006;-68
2022/03/02 03:10:10;;;;;;;3.35;2.87;;;;;;;11.14;51.80;101657.84;143718;654;47008;-68
2022/03/02 03:12:38;;;;;;;5.70;2.87;;;;;;;11.11;51.44;101655.53;143714;628;47004;-69
2022/03/02 03:15:06;;;;;;;3.17;2.50;;;;;;;11.09;51.71;101650.31;143715;573;47013;-68
2022/03/02 03:17:33;;;;;;;4.22;3.25;;;;;;;11.07;52.45;101650.50;143715;566;47004;-68
2022/03/02 03:20:00;;;;;;;4.15;3.33;;;;;;;11.05;52.32;101652.53;143713;575;47009;-68
2022/03/02 03:22:27;;;;;;;3.95;3.20;;;;;;;11.07;52.70;101650.50;143715;607;47004;-68
2022/03/02 03:24:53;;;;;;;5.30;3.60;;;;;;;11.13;52.09;101651.63;143716;590;47012;-68
2022/03/02 03:27:19;;;;;;;5.35;3.95;;;;;;;11.18;52.09;101641.19;143714;602;47007;-68
2022/03/02 03:29:46;;;;;;;6.00;4.28;;;;;;;11.22;52.54;101653.22;143715;567;47008;-68
2022/03/02 03:32:13;;;;;;;5.37;4.12;;;;;;;11.27;52.96;101649.19;143714;636;47004;-68
2022/03/02 03:34:40;;;;;;;5.35;4.40;;;;;;;11.26;52.50;101659.12;143715;593;47012;-68
2022/03/02 03:37:06;;;;;;;5.05;3.55;;;;;;;11.26;51.66;101652.88;143714;593;47006;-69
2022/03/02 03:39:33;;;;;;;5.25;4.15;;;;;;;11.30;51.85;101654.19;143717;587;47008;-69
2022/03/02 03:41:59;;;;;;;5.32;3.83;;;;;;;11.32;52.12;101649.47;143712;577;47006;-68
2022/03/02 03:44:25;;;;;;;5.18;4.03;;;;;;;11.31;53.04;101655.88;143717;612;47010;-68
2022/03/02 03:46:52;;;;;;;6.62;4.90;;;;;;;11.32;53.44;101661.06;143715;585;47006;-68
2022/03/02 03:49:18;;;;;;;6.78;4.78;;;;;;;11.29;53.19;101661.44;143716;609;47008;-68
2022/03/02 03:51:45;;;;;;;6.97;4.70;;;;;;;11.32;52.21;101654.84;143715;608;47004;-69
2022/03/02 03:54:11;;;;;;;6.15;4.40;;;;;;;11.34;50.93;101652.84;143716;583;47010;-68
2022/03/02 03:56:38;;;;;;;4.18;3.78;;;;;;;11.31;50.98;101656.69;143715;583;47931;-68
2022/03/02 03:59:04;;;;;;;6.45;4.32;;;;;;;11.31;52.14;101655.88;143717;624;47002;-69
2022/03/02 04:01:31;;;;;;;6.62;5.12;;;;;;;11.31;52.39;101656.69;143715;610;47006;-69
2022/03/02 04:03:57;;;;;;;7.53;4.80;;;;;;;11.32;52.66;101658.38;143716;599;47006;-69
2022/03/02 04:06:23;;;;;;;6.22;3.92;;;;;;;11.31;52.39;101655.88;143713;598;47006;-68
2022/03/02 04:08:50;;;;;;;4.45;4.05;;;;;;;11.31;52.24;101645.94;143717;569;47008;-69
2022/03/02 04:11:16;;;;;;;4.43;3.67;;;;;;;11.23;51.05;101641.47;143715;597;47006;-68
2022/03/02 04:13:43;;;;;;;9.00;4.30;;;;;;;11.17;50.97;101641.34;143715;605;47007;-70
2022/03/02 04:16:09;;;;;;;6.22;4.65;;;;;;;11.20;51.23;101639.16;143714;629;47006;-68
2022/03/02 04:18:35;;;;;;;6.65;4.78;;;;;;;11.26;51.52;101639.44;143718;606;46008;-69
2022/03/02 04:21:02;;;;;;;7.70;4.37;;;;;;;11.29;51.59;101637.25;143714;607;48002;-69
2022/03/02 04:23:28;;;;;;;6.90;5.15;;;;;;;11.25;52.05;101635.06;143715;593;47010;-69
2022/03/02 04:25:55;;;;;;;7.90;4.75;;;;;;;11.26;52.54;101634.06;143713;608;47006;-68
2022/03/02 04:28:21;;;;;;;8.60;4.90;;;;;;;11.25;52.47;101624.31;143717;664;46009;-69
2022/03/02 04:30:48;;;;;;;6.18;4.28;;;;;;;11.18;52.93;101618.81;143718;578;47008;-69
2022/03/02 04:33:15;;;;;;;7.32;4.55;;;;;;;11.20;53.32;101606.03;143715;572;47006;-68
2022/03/02 04:35:41;;;;;;;5.70;4.95;;;;;;;11.21;52.40;101608.53;143714;616;47006;-68
2022/03/02 04:38:10;;;;;;;6.40;5.50;;;;;;;11.16;51.69;101594.81;143717;595;47008;-69
2022/03/02 04:40:37;;;;;;;7.87;5.22;;;;;;;11.16;51.37;101596.66;143714;646;47004;-68
2022/03/02 04:43:03;;;;;;;6.22;5.22;;;;;;;11.10;50.52;101589.34;143715;615;47011;-68
2022/03/02 04:45:30;;;;;;;7.53;4.97;;;;;;;11.02;50.13;101580.31;143714;582;47006;-69
2022/03/02 04:47:58;;;;;;;8.10;4.32;;;;;;;11.00;50.42;101582.34;143717;614;47008;-69
2022/03/02 04:50:25;;;;;;;5.95;3.65;;;;;;;10.94;50.19;101583.06;143715;616;47004;-68
2022/03/02 04:52:54;;;;;;;4.82;3.75;;;;;;;10.87;50.09;101612.50;143715;598;47008;-69
2022/03/02 04:55:21;;;;;;;5.05;4.22;;;;;;;10.84;50.70;101603.94;143715;574;47004;-70
2022/03/02 04:57:54;;;;;;;4.37;3.62;;;;;;;10.86;50.89;101612.69;143716;590;47007;-68
2022/03/02 05:00:23;;;;;;;6.85;4.20;;;;;;;10.90;50.13;101612.13;143717;588;47004;-68
2022/03/02 05:02:50;;;;;;;5.60;4.28;;;;;;;10.98;50.89;101615.78;143717;610;47008;-68
2022/03/02 05:05:19;;;;;;;7.03;4.65;;;;;;;10.98;50.35;101615.78;143715;616;47005;-69
2022/03/02 05:07:46;;;;;;;5.85;4.03;;;;;;;11.02;50.31;101623.31;143717;639;46006;-70
2022/03/02 05:10:14;;;;;;;5.12;4.20;;;;;;;11.02;50.67;101630.56;143714;566;47002;-69
2022/03/02 05:12:41;;;;;;;8.95;7.05;;;;;;;10.99;51.17;101634.41;143716;586;47008;-70
2022/03/02 05:15:09;;;;;;;7.50;6.45;;;;;;;10.99;51.11;101626.34;143716;588;47011;-69
2022/03/02 05:17:37;;;;;;;8.68;5.97;;;;;;;10.97;51.29;101628.38;143716;607;46013;-68
2022/03/02 05:20:05;;;;;;;9.35;6.10;;;;;;;10.95;51.42;101635.78;143715;583;47002;-70
2022/03/02 05:22:32;;;;;;;6.50;4.87;;;;;;;10.98;51.90;101632.75;143714;569;47010;-69
2022/03/02 05:24:58;;;;;;;9.48;7.00;;;;;;;10.88;52.12;101638.34;143716;568;47002;-69
2022/03/02 05:27:24;;;;;;;11.00;6.70;;;;;;;10.85;51.43;101632.50;143715;567;47007;-70
2022/03/02 05:29:51;;;;;;;6.80;5.50;;;;;;;10.81;51.64;101644.63;143717;594;47008;-69
2022/03/02 05:32:17;;;;;;;6.85;4.30;;;;;;;10.74;50.91;101647.19;143716;606;47008;-69
2022/03/02 05:34:44;;;;;;;7.90;4.68;;;;;;;10.72;50.87;101647.37;143714;569;47004;-69
2022/03/02 05:37:10;;;;;;;5.90;4.25;;;;;;;10.71;51.18;101659.12;143717;567;47006;-69
2022/03/02 05:39:37;;;;;;;7.50;4.60;;;;;;;10.78;51.01;101659.25;143716;674;47004;-69
2022/03/02 05:42:04;;;;;;;6.87;4.03;;;;;;;10.75;51.74;101662.28;143715;579;47009;-69
2022/03/02 05:44:30;;;;;;;6.15;4.25;;;;;;;10.77;51.85;101661.09;143713;605;47004;-69
2022/03/02 05:46:57;;;;;;;11.27;7.65;;;;;;;10.82;51.68;101657.03;143718;585;47006;-70
2022/03/02 05:49:23;;;;;;;5.70;4.12;;;;;;;10.83;51.25;101659.56;143716;610;47004;-68
2022/03/02 05:51:50;;;;;;;10.77;6.62;;;;;;;10.77;52.10;101652.19;143716;594;47010;-68
2022/03/02 05:54:17;;;;;;;8.35;4.90;;;;;;;10.72;52.22;101654.56;143716;601;47004;-68
2022/03/02 05:56:43;;;;;;;11.02;5.97;;;;;;;10.75;53.08;101652.41;143716;580;47006;-68
2022/03/02 05:59:12;;;;;;;15.85;7.32;;;;;;;10.80;53.63;101664.44;143716;607;47004;-69
2022/03/02 06:01:39;;;;;;;9.63;6.70;;;;;;;10.86;54.31;101656.50;143716;608;47010;-67
2022/03/02 06:04:06;;;;;;;8.82;6.53;;;;;;;10.87;53.27;101651.97;143717;587;47003;-68
2022/03/02 06:06:34;;;;;;;11.90;8.50;;;;;;;10.86;54.33;101650.31;143717;598;47006;-68
2022/03/02 06:09:04;;;;;;;8.18;5.82;;;;;;;10.90;54.44;101654.31;143715;597;47002;-68
2022/03/02 06:11:31;;;;;;;12.65;9.07;;;;;;;10.88;55.25;101651.78;143717;583;47008;-68
2022/03/02 06:13:58;;;;;;;11.20;6.70;;;;;;;10.92;54.25;101649.59;143713;586;47004;-69
2022/03/02 06:16:25;;;;;;;8.02;6.00;;;;;;;10.95;54.79;101648.41;143716;592;47006;-68
2022/03/02 06:18:52;;;;;;;9.13;5.87;;;;;;;11.01;54.35;101636.94;143717;664;47008;-68
2022/03/02 06:21:23;;;;;;;8.02;5.82;;;;;;;11.05;53.77;101630.19;143714;569;47010;-67
2022/03/02 06:23:50;;;;;;;8.02;5.93;;;;;;;11.04;54.93;101633.87;143714;598;47004;-67
2022/03/02 06:26:18;;;;;;;11.18;8.00;;;;;;;11.02;55.01;101634.06;143718;597;46015;-67
2022/03/02 06:28:45;;;;;;;17.73;12.02;;;;;;;11.03;55.16;101625.00;143717;612;47008;-67
2022/03/02 06:31:13;;;;;;;16.85;9.50;;;;;;;11.05;55.88;101624.78;143714;593;47006;-67
2022/03/02 06:33:40;;;;;;;13.90;9.32;;;;;;;11.06;56.15;101626.47;143717;634;47002;-67
2022/03/02 06:36:07;;;;;;;10.32;8.00;;;;;;;11.09;56.18;101630.69;143714;573;47006;-68
2022/03/02 06:38:34;;;;;;;11.18;7.75;;;;;;;11.11;55.00;101618.72;143717;586;47004;-67
2022/03/02 06:41:43;;;;;;;11.00;7.78;;;;;;;11.14;54.85;101634.50;143717;611;47010;-67
2022/03/02 06:44:21;;;;;;;8.68;6.37;;;;;;;11.14;54.74;101626.44;143713;606;47004;-67
2022/03/02 06:47:23;;;;;;;8.65;6.50;;;;;;;11.18;55.69;101625.06;143717;588;46006;-66
2022/03/02 06:50:08;;;;;;;9.65;7.45;;;;;;;11.19;54.89;101615.97;143716;593;47004;-67
2022/03/02 06:52:43;;;;;;;;;;;;;;;11.18;53.92;101617.00;143718;985;47010;-67
2022/03/02 06:55:18;;;;;;;9.50;6.62;;;;;;;11.17;53.50;101615.31;143729;610;47010;-67
2022/03/02 06:58:07;;;;;;;13.38;9.68;;;;;;;11.16;54.09;101619.03;143717;575;47006;-67
2022/03/02 07:00:34;;;;;;;12.88;11.02;;;;;;;11.19;54.13;101620.50;143717;590;47002;-67
2022/03/02 07:03:06;;;;;;;15.07;13.57;;;;;;;11.27;53.80;101616.91;143718;620;47004;-68
2022/03/02 07:05:33;;;;;;;16.62;15.00;;;;;;;11.26;53.73;101626.84;143714;605;47004;-69
2022/03/02 07:08:04;;;;;;;20.88;18.87;;;;;;;11.28;54.11;101627.50;143716;567;47004;-68
2022/03/02 07:10:33;;;;;;;19.85;17.87;;;;;;;11.33;54.10;101627.78;143717;575;47002;-68
2022/03/02 07:13:02;;;;;;;19.25;17.50;;;;;;;11.38;53.26;101632.63;143711;602;47908;-67
2022/03/02 07:15:33;;;;;;;21.12;19.02;;;;;;;11.40;53.54;101646.72;143717;596;47004;-68
2022/03/02 07:18:02;;;;;;;21.17;19.02;;;;;;;11.39;53.51;101636.97;143718;600;47007;-67
2022/03/02 07:20:29;;;;;;;19.35;17.60;;;;;;;11.41;53.64;101639.50;143718;613;47004;-67
2022/03/02 07:22:58;;;;;;;18.17;16.37;;;;;;;11.43;53.49;101642.84;143717;584;47004;-67
2022/03/02 07:25:41;;;;;;;17.52;15.75;;;;;;;11.43;53.48;101643.66;143716;590;47004;-67
2022/03/02 07:28:10;;;;;;;17.58;15.73;;;;;;;11.44;54.18;101644.50;143716;602;47006;-67
2022/03/02 07:30:38;;;;;;;17.70;15.93;;;;;;;11.46;53.03;101639.78;143717;593;47004;-68
2022/03/02 07:33:05;;;;;;;18.02;16.35;;;;;;;11.49;53.80;101648.31;143716;604;47004;-68
2022/03/02 07:35:35;;;;;;;18.83;17.12;;;;;;;11.50;53.24;101646.47;143717;591;47004;-68
2022/03/02 07:38:02;;;;;;;16.60;15.00;;;;;;;11.50;53.63;101641.06;143719;566;46021;-68
2022/03/02 07:40:28;;;;;;;15.75;14.35;;;;;;;11.51;53.18;101646.28;143718;613;47002;-68
2022/03/02 07:42:55;;;;;;;16.40;14.73;;;;;;;11.55;52.71;101644.06;143716;600;47006;-68
2022/03/02 07:45:21;;;;;;;15.48;14.07;;;;;;;11.59;52.76;101640.00;143716;596;47010;-68
2022/03/02 07:47:48;;;;;;;14.63;13.20;;;;;;;11.61;52.41;101643.34;143722;604;47006;-68
2022/03/02 07:50:16;;;;;;;12.93;11.70;;;;;;;11.64;52.24;101643.00;143718;615;47002;-68
2022/03/02 07:52:53;;;;;;;13.50;12.18;;;;;;;11.65;52.90;101641.13;143718;567;47010;-69
2022/03/02 07:55:20;;;;;;;20.10;17.90;;;;;;;11.65;52.58;101636.56;143716;641;47004;-69
2022/03/02 07:57:56;;;;;;;21.37;19.08;;;;;;;11.67;52.06;101642.59;143721;619;46006;-68
2022/03/02 08:00:23;;;;;;;16.00;14.40;;;;;;;11.74;51.60;101644.56;143717;580;47002;-70
2022/03/02 08:02:52;;;;;;;13.35;11.63;;;;;;;11.78;50.57;101649.38;143718;586;47008;-69
2022/03/02 08:05:21;;;;;;;10.98;9.95;;;;;;;11.78;50.76;101652.09;143714;572;47004;-69
2022/03/02 08:07:49;;;;;;;11.80;9.73;;;;;;;11.79;50.58;101655.62;143719;573;47006;-69
2022/03/02 08:10:16;;;;;;;8.95;7.25;;;;;;;11.80;49.94;101654.59;143717;591;47004;-70
2022/03/02 08:12:43;;;;;;;10.65;8.52;;;;;;;11.83;48.59;101663.16;143719;618;47008;-67
2022/03/02 08:15:10;;;;;;;9.23;8.30;;;;;;;11.86;48.67;101656.53;143714;593;47013;-67
2022/03/02 08:17:37;;;;;;;9.57;7.15;;;;;;;11.88;48.09;101659.06;143713;604;51931;-70
2022/03/02 08:20:05;;;;;;;9.68;8.52;;;;;;;11.91;49.84;101666.78;143721;603;47008;-68
2022/03/02 08:22:34;;;;;;;11.50;10.30;;;;;;;11.89;49.93;101671.50;143715;620;47008;-67
2022/03/02 08:25:12;;;;;;;10.55;9.45;;;;;;;11.89;49.78;101671.50;143717;628;47004;-68
2022/03/02 08:27:40;;;;;;;9.07;7.75;;;;;;;11.81;48.76;101667.87;143718;613;47006;-68
2022/03/02 08:30:09;;;;;;;11.40;9.63;;;;;;;11.86;48.34;101664.63;143718;593;47002;-67
2022/03/02 08:32:42;;;;;;;10.55;9.35;;;;;;;11.91;48.83;101661.41;143717;634;48008;-67
2022/03/02 08:35:10;;;;;;;10.07;9.07;;;;;;;11.97;48.84;101666.03;143717;597;46927;-68
2022/03/02 08:37:38;;;;;;;10.57;9.48;;;;;;;11.98;48.83;101665.91;143718;574;47006;-68
2022/03/02 08:40:06;;;;;;;11.75;9.50;;;;;;;12.03;49.73;101670.72;143717;599;47002;-69
2022/03/02 08:42:32;;;;;;;11.43;10.23;;;;;;;12.01;49.41;101664.69;143717;615;47008;-68
2022/03/02 08:45:00;;;;;;;8.85;7.68;;;;;;;11.95;47.64;101666.22;143715;583;47004;-67
2022/03/02 08:47:26;;;;;;;8.13;6.78;;;;;;;11.93;47.75;101667.41;143716;778;47006;-67
2022/03/02 08:49:54;;;;;;;13.48;8.40;;;;;;;11.85;48.85;101662.94;143717;581;47002;-67
2022/03/02 08:52:26;;;;;;;8.55;6.18;;;;;;;11.77;48.33;101658.47;143718;607;47010;-67
2022/03/02 08:54:53;;;;;;;5.82;5.12;;;;;;;11.77;48.84;101671.94;143716;669;47004;-67
2022/03/02 08:57:21;;;;;;;10.85;9.40;;;;;;;11.72;50.26;101665.44;143719;592;47006;-67
2022/03/02 08:59:54;;;;;;;11.68;10.13;;;;;;;11.55;52.14;101649.44;143717;645;47004;-69
2022/03/02 09:02:24;;;;;;;8.45;7.18;;;;;;;11.53;51.70;101655.03;143718;652;47008;-68
2022/03/02 09:04:54;;;;;;;9.82;7.15;;;;;;;11.56;49.76;101647.59;143719;586;47010;-69
2022/03/02 09:07:20;;;;;;;9.63;8.65;;;;;;;11.58;49.93;101650.94;143719;572;47006;-69
2022/03/02 09:09:47;;;;;;;10.90;9.60;;;;;;;11.51;50.88;101645.44;143718;607;47003;-68
2022/03/02 09:12:15;;;;;;;6.90;5.43;;;;;;;11.58;49.35;101648.25;143717;603;47008;-67
2022/03/02 09:14:42;;;;;;;7.07;5.55;;;;;;;11.52;49.88;101650.66;143716;592;47004;-68
2022/03/02 09:17:10;;;;;;;14.18;10.90;;;;;;;11.60;49.03;101644.38;143719;615;47006;-69
2022/03/02 09:19:36;;;;;;;12.80;10.63;;;;;;;11.71;48.19;101643.09;143719;568;47002;-69
2022/03/02 09:22:06;;;;;;;10.68;8.57;;;;;;;11.77;47.74;101641.50;143718;574;47008;-68
2022/03/02 09:24:34;;;;;;;10.45;8.65;;;;;;;11.80;49.21;101643.84;143716;621;47004;-67
2022/03/02 09:27:02;;;;;;;6.12;5.12;;;;;;;11.87;49.48;101647.44;143717;608;47006;-68
2022/03/02 09:29:31;;;;;;;5.35;4.72;;;;;;;11.95;50.06;101650.06;143717;588;47002;-68
2022/03/02 09:31:59;;;;;;;7.87;5.97;;;;;;;12.00;48.09;101646.84;143718;696;47008;-68
2022/03/02 09:34:27;;;;;;;5.93;5.32;;;;;;;11.93;46.96;101643.19;143716;573;47004;-67
2022/03/02 09:36:55;;;;;;;8.43;6.22;;;;;;;11.95;47.85;101646.53;143720;586;46006;-68
2022/03/02 09:39:23;;;;;;;5.93;4.68;;;;;;;11.92;46.99;101646.87;143718;626;47004;-68
2022/03/02 09:42:15;;;;;;;7.10;4.40;;;;;;;11.89;48.08;101640.03;143718;616;47008;-68
2022/03/02 09:44:52;;;;;;;7.37;5.45;;;;;;;11.76;47.94;101646.03;143716;572;47004;-67
2022/03/02 09:47:21;;;;;;;7.97;5.75;;;;;;;11.70;48.63;101641.41;143719;605;47006;-67
2022/03/02 09:49:55;;;;;;;6.65;5.03;;;;;;;11.73;48.53;101642.88;143717;590;47002;-68
2022/03/02 09:52:23;;;;;;;8.63;4.85;;;;;;;11.87;48.20;101638.56;143716;577;47010;-68
2022/03/02 09:54:57;;;;;;;4.43;3.97;;;;;;;11.95;47.21;101642.00;143715;609;47004;-68
2022/03/02 09:57:24;;;;;;;4.97;4.43;;;;;;;11.94;45.01;101643.00;143718;584;47006;-68
2022/03/02 09:59:56;;;;;;;4.70;3.60;;;;;;;11.91;42.44;101639.87;143718;603;47004;-68
2022/03/02 10:02:55;;;;;;;8.82;7.00;;;;;;;11.76;45.96;101635.28;143717;681;47010;-68
2022/03/02 10:05:24;;;;;;;7.07;5.30;;;;;;;11.72;45.92;101633.16;143714;614;47004;-68
2022/03/02 10:08:03;;;;;;;5.97;4.90;;;;;;;11.63;46.32;101622.47;143717;578;47006;-68
2022/03/02 10:10:33;;;;;;;7.75;5.32;;;;;;;11.44;46.03;101620.31;143719;588;47002;-69
2022/03/02 10:13:03;;;;;;;7.95;6.32;;;;;;;11.49;45.27;101628.66;143719;578;47008;-67
2022/03/02 10:15:31;;;;;;;11.55;7.93;;;;;;;11.51;44.40;101626.59;143715;567;47004;-68
2022/03/02 10:18:00;;;;;;;14.27;9.65;;;;;;;11.47;44.76;101630.72;143714;603;47007;-69
2022/03/02 10:20:29;;;;;;;8.55;7.18;;;;;;;11.44;43.75;101636.44;143716;596;47004;-68
2022/03/02 10:23:41;;;;;;;8.50;6.07;;;;;;;11.38;43.51;101635.31;143720;658;46008;-68
2022/03/02 10:26:40;;;;;;;7.43;6.65;;;;;;;11.36;44.36;101632.78;143716;586;47004;-68
2022/03/02 10:29:45;;;;;;;7.85;7.05;;;;;;;11.43;44.68;101621.31;143719;580;47006;-67
2022/03/02 10:32:17;;;;;;;9.10;7.50;;;;;;;11.41;43.61;101613.41;143715;597;47004;-67
2022/03/02 10:35:02;;;;;;;7.62;6.20;;;;;;;11.41;43.77;101612.59;143718;572;47010;-67
2022/03/02 10:37:36;;;;;;;6.97;5.95;;;;;;;11.46;43.15;101608.34;143716;608;47004;-68
2022/03/02 10:40:31;;;;;;;6.13;5.40;;;;;;;11.43;42.72;101608.69;143719;594;47006;-68
2022/03/02 10:43:00;;;;;;;;;;;;;;;11.49;42.97;101612.50;143719;967;47004;-69
2022/03/02 10:45:52;;;;;;;5.40;4.55;;;;;;;11.49;42.18;101607.97;143727;596;47010;-68
2022/03/02 10:48:44;;;;;;;6.53;5.68;;;;;;;11.44;42.64;101607.69;143716;586;47004;-67
2022/03/02 10:51:11;;;;;;;6.55;4.90;;;;;;;11.42;41.77;101592.75;143718;597;47006;-68
2022/03/02 10:53:44;;;;;;;7.28;5.47;;;;;;;11.43;41.60;101602.50;143716;639;47003;-68
2022/03/02 10:56:13;;;;;;;7.18;5.05;;;;;;;11.51;41.94;101595.19;143718;616;47008;-69
2022/03/02 10:58:46;;;;;;;6.50;5.10;;;;;;;11.62;41.99;101593.03;143716;613;47004;-67
2022/03/02 11:01:12;;;;;;;7.12;5.35;;;;;;;11.67;40.97;101594.16;143717;608;47007;-69
2022/03/02 11:03:38;;;;;;;7.22;4.85;;;;;;;11.78;41.41;101587.47;143720;597;47002;-68
2022/03/02 11:06:06;;;;;;;5.57;4.45;;;;;;;11.95;39.71;101581.91;143717;590;47008;-69
2022/03/02 11:08:38;;;;;;;5.10;4.35;;;;;;;12.33;39.79;101567.53;143716;623;47004;-68
2022/03/02 11:11:09;;;;;;;6.37;4.97;;;;;;;12.70;38.02;101562.94;143719;618;46006;-69
2022/03/02 11:13:36;;;;;;;6.43;4.12;;;;;;;12.89;39.16;101559.59;143719;615;47002;-68
2022/03/02 11:16:05;;;;;;;6.32;4.82;;;;;;;12.92;38.26;101549.44;143716;568;47010;-68
2022/03/02 11:18:52;;;;;;;6.25;5.35;;;;;;;12.73;38.47;101547.22;143716;594;47004;-68
2022/03/02 11:21:22;;;;;;;5.32;4.82;;;;;;;12.53;39.03;101547.00;143719;607;47006;-68
2022/03/02 11:23:54;;;;;;;7.30;4.65;;;;;;;12.98;39.49;101540.59;143716;620;47002;-69
2022/03/02 11:26:26;;;;;;;6.87;4.60;;;;;;;13.09;38.17;101526.56;143718;590;47010;-68
2022/03/02 11:28:56;;;;;;;7.05;5.72;;;;;;;13.25;38.77;101522.75;143716;603;47004;-69
2022/03/02 11:31:31;;;;;;;9.63;5.80;;;;;;;13.41;38.94;101518.97;143718;657;47007;-70